Time;durP1;ratioP1;P1;durP2;ratioP2;P2;SDS_P1;SDS_P2;PMS_P1;PMS_P2;Temp;Humidity;BMP_temperature;BMP_pressure;BME280_temperature;BME280_humidity;BME280_pressure;Samples;Min_cycle;Max_cycle;Signal;HPM_P1;HPM_P2
2021/08/07 00:03:47;;;;;;;10.30;8.52;;;19.70;99.90;;;;;;5001104;28;20049;-92
2021/08/07 00:13:26;;;;;;;;;;;;;;;;;;;;;
2021/08/07 00:16:04;;;;;;;11.00;6.53;;;19.60;99.90;;;;;;4991750;28;20469;-93
2021/08/07 00:19:04;;;;;;;;;;;;;;;;;;;;;
2021/08/07 00:21:48;;;;;;;;;;;;;;;;;;;;;
2021/08/07 00:24:57;;;;;;;9.30;7.85;;;19.60;99.90;;;;;;4996726;28;20034;-93
2021/08/07 00:30:59;;;;;;;8.95;7.55;;;19.60;99.90;;;;;;4982431;28;20090;-93
2021/08/07 00:33:55;;;;;;;;;;;;;;;;;;;;;
2021/08/07 00:37:08;;;;;;;;;;;;;;;;;;;;;
2021/08/07 00:40:14;;;;;;;;;;;;;;;;;;;;;
2021/08/07 00:43:10;;;;;;;;;;;;;;;;;;;;;
2021/08/07 00:45:49;;;;;;;8.10;7.28;;;19.40;99.90;;;;;;4988491;28;20420;-93
2021/08/07 00:48:57;;;;;;;;;;;;;;;;;;;;;
2021/08/07 00:51:33;;;;;;;10.90;7.72;;;19.40;99.90;;;;;;4996459;28;20043;-92
2021/08/07 00:53:59;;;;;;;9.68;7.93;;;19.30;99.90;;;;;;4979054;28;20038;-92
2021/08/07 00:56:30;;;;;;;10.95;7.85;;;19.30;99.90;;;;;;4978867;28;20045;-92
2021/08/07 00:59:01;;;;;;;10.02;7.97;;;19.30;99.90;;;;;;4978978;28;20038;-93
2021/08/07 01:01:37;;;;;;;10.10;7.60;;;19.30;99.90;;;;;;4979088;28;20034;-93
2021/08/07 01:10:53;;;;;;;7.93;7.13;;;19.30;99.90;;;;;;4985312;28;20046;-94
2021/08/07 01:14:12;;;;;;;7.18;6.47;;;19.30;99.90;;;;;;4995977;28;20039;-95
2021/08/07 01:21:01;;;;;;;;;;;;;;;;;;;;;
2021/08/07 01:27:22;;;;;;;7.70;6.90;;;19.30;99.90;;;;;;4982011;28;20030;-93
2021/08/07 01:30:55;;;;;;;9.82;7.90;;;19.20;99.90;;;;;;4959223;28;20031;-93
2021/08/07 01:36:36;;;;;;;10.88;6.85;;;19.30;99.90;;;;;;4981876;28;20476;-94
2021/08/07 01:39:25;;;;;;;9.20;7.50;;;19.30;99.90;;;;;;4970570;28;20564;-93
2021/08/07 01:49:02;;;;;;;10.30;8.63;;;19.30;99.90;;;;;;4981788;28;20113;-93
2021/08/07 01:52:21;;;;;;;8.93;7.22;;;19.30;99.90;;;;;;4898162;29;20041;-94
2021/08/07 01:58:15;;;;;;;;;;;;;;;;;;;;;
2021/08/07 02:01:23;;;;;;;;;;;;;;;;;;;;;
2021/08/07 02:04:38;;;;;;;8.20;7.40;;;19.20;99.90;;;;;;5005213;28;20129;-92
2021/08/07 02:13:57;;;;;;;;;;;;;;;;;;;;;
2021/08/07 02:17:28;;;;;;;11.70;7.15;;;19.10;99.90;;;;;;4980518;28;20030;-93
2021/08/07 02:20:08;;;;;;;;;;;;;;;;;;;;;
2021/08/07 02:29:36;;;;;;;7.20;6.35;;;19.10;99.90;;;;;;4979661;28;20503;-94
2021/08/07 02:32:31;;;;;;;;;;;;;;;;;;;;;
2021/08/07 02:35:51;;;;;;;7.38;6.22;;;19.10;99.90;;;;;;4979531;28;20462;-93
2021/08/07 02:39:02;;;;;;;8.57;6.28;;;19.10;99.90;;;;;;4979305;28;20046;-94
2021/08/07 02:41:46;;;;;;;7.53;5.63;;;19.10;99.90;;;;;;4978696;28;20489;-93
2021/08/07 02:44:26;;;;;;;;;;;;;;;;;;;;;
2021/08/07 02:47:47;;;;;;;7.95;5.88;;;19.00;99.90;;;;;;4979299;28;20045;-93
2021/08/07 02:50:41;;;;;;;8.60;6.97;;;19.00;99.90;;;;;;4955193;28;20038;-94
2021/08/07 02:53:23;;;;;;;;;;;;;;;;;;;;;
2021/08/07 02:56:28;;;;;;;;;;;;;;;;;;;;;
2021/08/07 02:59:07;;;;;;;;;;;;;;;;;;;;;
2021/08/07 03:05:31;;;;;;;;;;;;;;;;;;;;;
2021/08/07 03:15:04;;;;;;;6.72;5.80;;;18.80;99.90;;;;;;4984558;28;20030;-93
2021/08/07 03:17:45;;;;;;;;;;;;;;;;;;;;;
2021/08/07 03:21:01;;;;;;;8.43;6.75;;;18.80;99.90;;;;;;4998736;28;20042;-94
2021/08/07 03:23:59;;;;;;;8.13;6.75;;;18.80;99.90;;;;;;4919343;29;20048;-93
2021/08/07 03:29:59;;;;;;;8.90;6.70;;;18.80;99.90;;;;;;4960974;28;20038;-93
2021/08/07 03:33:17;;;;;;;;;;;;;;;;;;;;;
2021/08/07 03:36:36;;;;;;;;;;;;;;;;;;;;;
2021/08/07 03:39:32;;;;;;;;;;;;;;;;;;;;;
2021/08/07 03:42:40;;;;;;;9.20;8.23;;;18.70;99.90;;;;;;4990267;28;20529;-93
2021/08/07 03:45:35;;;;;;;8.43;7.28;;;18.70;99.90;;;;;;4972595;28;20037;-93
2021/08/07 03:48:41;;;;;;;;;;;;;;;;;;;;;
2021/08/07 03:51:28;;;;;;;10.48;7.35;;;18.70;99.90;;;;;;5006882;28;20463;-91
2021/08/07 03:54:22;;;;;;;8.98;6.93;;;18.80;99.90;;;;;;5005636;28;20034;-93
2021/08/07 03:57:04;;;;;;;;;;;;;;;;;;;;;
2021/08/07 04:00:12;;;;;;;;;;;;;;;;;;;;;
2021/08/07 04:03:19;;;;;;;;;;;;;;;;;;;;;
2021/08/07 04:05:57;;;;;;;;;;;;;;;;;;;;;
2021/08/07 04:09:03;;;;;;;;;;;;;;;;;;;;;
2021/08/07 04:11:59;;;;;;;8.02;6.32;;;19.00;99.90;;;;;;4995868;28;20126;-94
2021/08/07 04:14:40;;;;;;;;;;;;;;;;;;;;;
2021/08/07 04:17:09;;;;;;;8.75;6.88;;;19.10;99.90;;;;;;4998808;28;20042;-93
2021/08/07 04:19:50;;;;;;;7.85;7.05;;;19.20;99.90;;;;;;4979478;28;20061;-93
2021/08/07 04:22:49;;;;;;;;;;;;;;;;;;;;;
2021/08/07 04:25:18;;;;;;;8.68;6.80;;;19.30;99.90;;;;;;4997736;28;20044;-93
2021/08/07 04:28:10;;;;;;;;;;;;;;;;;;;;;
2021/08/07 04:34:09;;;;;;;;;;;;;;;;;;;;;
2021/08/07 04:40:15;;;;;;;;;;;;;;;;;;;;;
2021/08/07 04:43:34;;;;;;;;;;;;;;;;;;;;;
2021/08/07 04:46:30;;;;;;;9.10;7.80;;;19.60;99.90;;;;;;4918656;29;20055;-94
2021/08/07 04:49:32;;;;;;;;;;;;;;;;;;;;;
2021/08/07 04:52:03;;;;;;;10.77;9.68;;;19.70;99.90;;;;;;4997087;28;20048;-93
2021/08/07 04:58:14;;;;;;;11.32;9.32;;;19.70;99.90;;;;;;4917843;29;20051;-94
2021/08/07 05:01:19;;;;;;;12.85;10.30;;;19.80;99.90;;;;;;4902548;29;20036;-94
2021/08/07 05:07:27;;;;;;;14.80;12.93;;;19.90;99.90;;;;;;4903418;29;20135;-93
2021/08/07 05:13:40;;;;;;;;;;;;;;;;;;;;;
2021/08/07 05:16:31;;;;;;;17.60;15.18;;;20.00;99.90;;;;;;4996959;28;20530;-92
2021/08/07 05:19:00;;;;;;;18.98;14.88;;;20.10;99.90;;;;;;4979457;28;20041;-93
2021/08/07 05:21:31;;;;;;;19.13;15.63;;;20.10;99.90;;;;;;4996337;28;20034;-92
2021/08/07 05:25:01;;;;;;;;;;;;;;;;;;;;;
2021/08/07 05:28:09;;;;;;;;;;;;;;;;;;;;;
2021/08/07 05:30:51;;;;;;;23.92;17.73;;;20.10;99.90;;;;;;4991773;28;20106;-94
2021/08/07 05:33:37;;;;;;;25.50;18.88;;;20.10;99.90;;;;;;4978067;28;20522;-93
2021/08/07 05:36:16;;;;;;;26.40;21.95;;;20.00;99.90;;;;;;4978354;28;20038;-93
2021/08/07 05:39:08;;;;;;;27.50;20.90;;;20.00;99.90;;;;;;4997757;28;20042;-93
2021/08/07 05:42:01;;;;;;;28.73;21.42;;;19.90;99.90;;;;;;5006506;28;20041;-91
2021/08/07 05:45:12;;;;;;;;;;;;;;;;;;;;;
2021/08/07 05:47:53;;;;;;;29.02;20.33;;;19.70;99.90;;;;;;5009689;28;20295;-91
2021/08/07 05:50:52;;;;;;;;;;;;;;;;;;;;;
2021/08/07 05:53:35;;;;;;;22.92;18.05;;;19.60;99.90;;;;;;5002733;28;20117;-93
2021/08/07 05:56:41;;;;;;;26.67;20.42;;;19.70;99.90;;;;;;4981799;28;20121;-94
2021/08/07 05:59:35;;;;;;;29.25;21.05;;;19.70;99.90;;;;;;4979980;28;20062;-94
2021/08/07 06:02:24;;;;;;;27.23;18.48;;;19.80;99.90;;;;;;4977467;28;20057;-94
2021/08/07 06:11:42;;;;;;;;;;;;;;;;;;;;;
2021/08/07 06:14:51;;;;;;;34.83;22.27;;;19.90;99.90;;;;;;4996444;28;20464;-93
2021/08/07 06:17:28;;;;;;;32.13;22.10;;;20.00;99.90;;;;;;4981431;28;20030;-93
2021/08/07 06:24:01;;;;;;;;;;;;;;;;;;;;;
2021/08/07 06:27:30;;;;;;;;;;;;;;;;;;;;;
2021/08/07 06:43:19;;;;;;;20.30;17.45;;;21.30;99.90;;;;;;4977600;28;20055;-94
2021/08/07 06:46:28;;;;;;;;;;;;;;;;;;;;;
2021/08/07 06:49:32;;;;;;;;;;;;;;;;;;;;;
2021/08/07 06:53:02;;;;;;;19.35;16.38;;;21.90;99.70;;;;;;4999824;28;20121;-96
2021/08/07 06:56:23;;;;;;;16.48;14.73;;;22.10;98.90;;;;;;4983836;28;20038;-93
2021/08/07 07:09:50;;;;;;;14.95;13.38;;;22.50;95.00;;;;;;4847875;29;20061;-94
2021/08/07 07:19:32;;;;;;;;;;;;;;;;;;;;;
2021/08/07 07:28:56;;;;;;;;;;;;;;;;;;;;;
2021/08/07 07:39:36;;;;;;;;;;;;;;;;;;;;;
2021/08/07 07:52:55;;;;;;;6.88;6.20;;;23.30;92.70;;;;;;4830976;29;20042;-94
2021/08/07 07:56:27;;;;;;;;;;;;;;;;;;;;;
2021/08/07 08:03:00;;;;;;;;;;;;;;;;;;;;;
2021/08/07 08:06:12;;;;;;;;;;;;;;;;;;;;;
2021/08/07 08:13:43;;;;;;;5.68;5.13;;;23.40;89.80;;;;;;4787242;30;20047;-94
2021/08/07 08:27:20;;;;;;;;;;;;;;;;;;;;;
2021/08/07 08:45:32;;;;;;;;;;;;;;;;;;;;;
2021/08/07 08:52:31;;;;;;;;;;;;;;;;;;;;;
2021/08/07 08:55:45;;;;;;;;;;;;;;;;;;;;;
2021/08/07 09:02:43;;;;;;;;;;;;;;;;;;;;;
2021/08/07 09:09:13;;;;;;;;;;;;;;;;;;;;;
2021/08/07 09:27:42;;;;;;;4.47;4.07;;;25.10;78.50;;;;;;4778592;30;20105;-94
2021/08/07 09:30:22;;;;;;;4.45;4.05;;;25.20;79.50;;;;;;4831846;29;20049;-93
2021/08/07 09:32:59;;;;;;;4.75;4.22;;;25.30;76.70;;;;;;4826530;29;20038;-91
2021/08/07 09:35:42;;;;;;;5.40;4.18;;;25.40;77.30;;;;;;4905714;29;20071;-92
2021/08/07 09:38:19;;;;;;;3.60;3.30;;;25.40;76.20;;;;;;4941593;29;20031;-91
2021/08/07 09:41:54;;;;;;;;;;;;;;;;;;;;;
2021/08/07 09:44:38;;;;;;;3.80;3.45;;;25.10;71.10;;;;;;4926471;29;20075;-91
2021/08/07 09:47:47;;;;;;;5.90;4.00;;;25.00;72.70;;;;;;4959618;29;20046;-91
2021/08/07 09:51:14;;;;;;;3.45;3.15;;;24.90;72.30;;;;;;4962999;28;20085;-94
2021/08/07 09:53:59;;;;;;;3.63;3.33;;;24.80;74.80;;;;;;4923820;29;20054;-93
2021/08/07 09:56:51;;;;;;;3.67;3.38;;;24.90;75.80;;;;;;4945608;29;20031;-92
2021/08/07 09:59:59;;;;;;;;;;;;;;;;;;;;;
2021/08/07 10:02:36;;;;;;;3.42;3.13;;;25.20;73.00;;;;;;4986533;28;20122;-93
2021/08/07 10:05:30;;;;;;;3.92;2.90;;;25.40;72.60;;;;;;4985251;28;20595;-93
2021/08/07 10:08:13;;;;;;;2.78;2.58;;;25.40;71.30;;;;;;4982529;28;20108;-93
2021/08/07 10:11:12;;;;;;;2.92;2.53;;;25.40;71.10;;;;;;4980069;28;20128;-93
2021/08/07 10:14:11;;;;;;;3.58;3.28;;;25.50;71.10;;;;;;4984811;28;20046;-93
2021/08/07 10:19:47;;;;;;;2.47;2.28;;;25.40;68.70;;;;;;4979599;28;20046;-93
2021/08/07 10:22:27;;;;;;;2.75;2.30;;;25.50;69.80;;;;;;4982120;28;20118;-94
2021/08/07 10:25:03;;;;;;;2.97;2.78;;;25.60;69.20;;;;;;4977480;28;20043;-94
2021/08/07 10:27:42;;;;;;;;;;;;;;;;;;;;;
2021/08/07 10:30:11;;;;;;;3.65;3.08;;;25.80;68.80;;;;;;4998730;28;20113;-94
2021/08/07 10:32:56;;;;;;;;;;;;;;;;;;;;;
2021/08/07 10:35:31;;;;;;;3.78;3.20;;;26.10;67.60;;;;;;5000607;28;20205;-94
2021/08/07 10:37:58;;;;;;;3.38;2.90;;;26.10;65.00;;;;;;4983193;28;20065;-93
2021/08/07 10:40:41;;;;;;;3.10;2.80;;;25.90;66.10;;;;;;4981131;28;20038;-94
2021/08/07 10:43:24;;;;;;;4.50;3.10;;;25.90;66.00;;;;;;4985699;28;20122;-94
2021/08/07 10:46:06;;;;;;;3.38;3.08;;;25.70;66.70;;;;;;4979648;28;20030;-94
2021/08/07 10:48:42;;;;;;;3.28;2.97;;;25.60;65.70;;;;;;4984114;28;20093;-94
2021/08/07 10:51:24;;;;;;;2.92;2.70;;;25.40;65.70;;;;;;4980692;28;20051;-92
2021/08/07 10:53:57;;;;;;;2.72;2.53;;;25.40;66.20;;;;;;4981482;28;20042;-95
2021/08/07 10:56:50;;;;;;;3.88;3.03;;;25.30;66.80;;;;;;4981896;28;20041;-95
2021/08/07 10:59:28;;;;;;;5.68;2.88;;;25.30;66.00;;;;;;4999815;28;20042;-94
2021/08/07 11:02:34;;;;;;;2.92;2.70;;;25.30;66.80;;;;;;4981047;28;20096;-94
2021/08/07 11:05:05;;;;;;;3.28;2.97;;;25.30;66.70;;;;;;4978945;28;20046;-94
2021/08/07 11:07:31;;;;;;;3.53;2.97;;;25.20;66.80;;;;;;4993677;28;20042;-94
2021/08/07 11:10:19;;;;;;;3.33;2.80;;;25.20;66.60;;;;;;4984440;28;20038;-94
2021/08/07 11:13:05;;;;;;;3.05;2.80;;;25.20;66.60;;;;;;4994938;28;20102;-95
2021/08/07 11:15:38;;;;;;;3.65;3.35;;;25.30;67.80;;;;;;4989794;28;20042;-95
2021/08/07 11:18:28;;;;;;;5.00;2.90;;;25.40;67.60;;;;;;4991357;28;20106;-95
2021/08/07 11:20:56;;;;;;;3.20;2.90;;;25.40;67.20;;;;;;4974821;28;20035;-94
2021/08/07 11:23:54;;;;;;;2.88;2.67;;;25.40;67.30;;;;;;4988985;28;20043;-95
2021/08/07 11:26:49;;;;;;;3.00;2.80;;;25.30;65.80;;;;;;4966788;28;20034;-94
2021/08/07 11:29:27;;;;;;;3.15;2.90;;;25.20;65.70;;;;;;4973732;28;20117;-94
2021/08/07 11:32:16;;;;;;;3.30;3.00;;;25.10;66.80;;;;;;4986078;28;20043;-94
2021/08/07 11:35:05;;;;;;;3.20;2.95;;;25.00;66.50;;;;;;4997145;28;20050;-94
2021/08/07 11:37:41;;;;;;;2.97;2.50;;;25.00;63.70;;;;;;4976857;28;20035;-92
2021/08/07 11:40:17;;;;;;;2.95;2.65;;;25.00;65.90;;;;;;4981986;28;20103;-93
2021/08/07 11:42:51;;;;;;;2.13;2.03;;;25.00;62.20;;;;;;4979979;28;20050;-92
2021/08/07 11:45:24;;;;;;;2.70;2.50;;;25.00;64.00;;;;;;4991426;28;20131;-93
2021/08/07 11:48:10;;;;;;;3.05;2.70;;;25.10;62.40;;;;;;4984632;28;20047;-93
2021/08/07 11:50:44;;;;;;;2.45;2.22;;;25.20;60.50;;;;;;4988915;28;20122;-92
2021/08/07 11:53:20;;;;;;;3.67;2.60;;;25.30;61.70;;;;;;4979262;28;20034;-94
2021/08/07 11:56:06;;;;;;;2.45;1.98;;;25.30;62.20;;;;;;4976722;28;20038;-93
2021/08/07 11:58:41;;;;;;;2.65;2.30;;;25.40;62.60;;;;;;4976862;28;20106;-94
2021/08/07 12:01:07;;;;;;;3.15;2.65;;;25.50;61.70;;;;;;4997176;28;20034;-93
2021/08/07 12:03:49;;;;;;;3.08;2.30;;;25.40;61.50;;;;;;4982375;28;20072;-93
2021/08/07 12:06:20;;;;;;;3.20;2.55;;;25.40;61.80;;;;;;4980033;28;20038;-93
2021/08/07 12:08:49;;;;;;;2.45;2.25;;;25.40;62.20;;;;;;4979106;28;20049;-93
2021/08/07 12:11:23;;;;;;;2.50;2.30;;;25.50;61.30;;;;;;4980675;28;20102;-94
2021/08/07 12:13:51;;;;;;;2.78;2.58;;;25.50;60.10;;;;;;4977226;28;20851;-93
2021/08/07 12:16:19;;;;;;;2.30;2.10;;;25.40;60.70;;;;;;4977568;28;20038;-93
2021/08/07 12:19:21;;;;;;;3.05;2.40;;;25.30;60.60;;;;;;4980040;28;20110;-94
2021/08/07 12:22:05;;;;;;;2.50;2.30;;;25.20;59.40;;;;;;4947900;28;20049;-92
2021/08/07 12:24:35;;;;;;;3.83;2.30;;;25.20;59.50;;;;;;4965003;28;20050;-94
2021/08/07 12:27:14;;;;;;;2.63;2.42;;;25.10;60.80;;;;;;4966928;28;20030;-94
2021/08/07 12:29:42;;;;;;;2.22;2.03;;;25.10;61.30;;;;;;4968536;28;20084;-95
2021/08/07 12:32:08;;;;;;;2.08;1.92;;;25.20;61.40;;;;;;4990971;28;20045;-93
2021/08/07 12:34:39;;;;;;;2.50;2.20;;;25.20;61.20;;;;;;4972976;28;20030;-95
2021/08/07 12:37:17;;;;;;;2.20;2.05;;;25.20;60.20;;;;;;4979832;28;20045;-96
2021/08/07 12:40:05;;;;;;;2.30;2.15;;;25.30;60.70;;;;;;4979940;28;20038;-94
2021/08/07 12:42:38;;;;;;;2.25;2.05;;;25.30;60.40;;;;;;4976744;28;20101;-94
2021/08/07 12:45:13;;;;;;;2.08;1.88;;;25.20;60.90;;;;;;4974118;28;20062;-94
2021/08/07 12:47:43;;;;;;;2.42;2.20;;;25.20;61.00;;;;;;4977941;28;20034;-93
2021/08/07 12:50:26;;;;;;;;;;;;;;;;;;;;;
2021/08/07 12:53:18;;;;;;;2.75;2.55;;;25.00;61.30;;;;;;4995184;28;20054;-93
2021/08/07 12:55:51;;;;;;;2.80;2.60;;;24.90;61.80;;;;;;4975693;28;20038;-93
2021/08/07 12:58:22;;;;;;;2.92;2.65;;;24.80;62.40;;;;;;4996038;28;20042;-93
2021/08/07 13:00:50;;;;;;;3.20;2.78;;;24.60;62.80;;;;;;4972086;28;20038;-93
2021/08/07 13:03:20;;;;;;;2.40;2.20;;;24.50;63.30;;;;;;4964230;28;20042;-93
2021/08/07 13:05:48;;;;;;;2.70;2.50;;;24.40;63.80;;;;;;4972266;28;20173;-93
2021/08/07 13:08:31;;;;;;;2.40;2.20;;;24.30;64.30;;;;;;4989029;28;20037;-94
2021/08/07 13:11:20;;;;;;;2.40;2.20;;;24.20;64.60;;;;;;4970302;28;20100;-94
2021/08/07 13:13:51;;;;;;;3.10;2.80;;;24.10;65.00;;;;;;4983740;28;20039;-93
2021/08/07 13:16:41;;;;;;;3.00;2.80;;;24.10;65.60;;;;;;4978579;28;20066;-93
2021/08/07 13:19:24;;;;;;;2.70;2.50;;;24.10;66.00;;;;;;4996095;28;20027;-94
2021/08/07 13:22:04;;;;;;;2.50;2.30;;;24.00;66.40;;;;;;4967490;28;20475;-94
2021/08/07 13:25:00;;;;;;;2.30;2.10;;;24.00;66.70;;;;;;4996514;28;20470;-94
2021/08/07 13:28:08;;;;;;;2.53;2.33;;;23.90;67.00;;;;;;4962780;28;20070;-94
2021/08/07 13:30:53;;;;;;;3.28;2.60;;;23.90;67.60;;;;;;4969940;28;20087;-94
2021/08/07 13:33:33;;;;;;;3.10;2.80;;;23.80;68.20;;;;;;4960717;28;20541;-95
2021/08/07 13:36:06;;;;;;;2.65;2.45;;;23.70;69.40;;;;;;4964230;28;20382;-93
2021/08/07 13:38:37;;;;;;;2.72;2.53;;;23.60;70.00;;;;;;4971678;28;20062;-93
2021/08/07 13:41:17;;;;;;;2.97;2.78;;;23.50;70.80;;;;;;4969176;28;20396;-92
2021/08/07 13:43:43;;;;;;;2.33;2.13;;;23.40;71.90;;;;;;4980935;28;20473;-93
2021/08/07 13:46:19;;;;;;;2.88;2.40;;;23.30;71.70;;;;;;4980361;28;20042;-93
2021/08/07 13:48:53;;;;;;;2.50;2.30;;;23.20;72.10;;;;;;4975492;28;20034;-94
2021/08/07 13:51:26;;;;;;;3.22;2.40;;;23.20;72.80;;;;;;4994620;28;20035;-93
2021/08/07 13:53:53;;;;;;;2.72;2.53;;;23.10;73.40;;;;;;4963491;28;20042;-93
2021/08/07 13:56:22;;;;;;;3.00;2.70;;;23.10;73.80;;;;;;4987634;28;20033;-94
2021/08/07 13:58:48;;;;;;;4.03;3.20;;;23.00;74.50;;;;;;4984208;28;20404;-94
2021/08/07 14:01:19;;;;;;;3.40;3.10;;;22.90;75.00;;;;;;4981762;28;20065;-94
2021/08/07 14:03:52;;;;;;;3.97;3.47;;;22.90;75.70;;;;;;4962627;28;20050;-93
2021/08/07 14:06:21;;;;;;;4.20;3.53;;;22.80;76.10;;;;;;4999309;28;20073;-94
2021/08/07 14:08:52;;;;;;;3.60;3.30;;;22.70;76.50;;;;;;4999284;28;20133;-94
2021/08/07 14:11:21;;;;;;;3.33;3.03;;;22.70;77.10;;;;;;4982672;28;20542;-93
2021/08/07 14:13:48;;;;;;;3.92;3.08;;;22.60;77.10;;;;;;4982981;28;20045;-93
2021/08/07 14:16:23;;;;;;;4.10;3.70;;;22.60;76.90;;;;;;4984980;28;20034;-92
2021/08/07 14:19:00;;;;;;;3.97;3.22;;;22.50;77.40;;;;;;4981577;28;20038;-91
2021/08/07 14:21:27;;;;;;;3.53;3.08;;;22.40;78.20;;;;;;4984607;28;20070;-92
2021/08/07 14:23:53;;;;;;;3.38;3.08;;;22.50;78.60;;;;;;4983520;28;20057;-92
2021/08/07 14:26:18;;;;;;;3.92;3.53;;;22.50;78.60;;;;;;4979657;28;20030;-93
2021/08/07 14:28:58;;;;;;;3.70;3.30;;;22.50;78.80;;;;;;4974379;28;20039;-93
2021/08/07 14:35:29;;;;;;;3.30;3.00;;;22.50;79.70;;;;;;4971498;28;20034;-93
2021/08/07 14:39:03;;;;;;;3.38;2.85;;;22.40;78.80;;;;;;4994892;28;20061;-95
2021/08/07 14:41:26;;;;;;;3.65;3.00;;;22.40;78.50;;;;;;4981519;28;20547;-93
2021/08/07 14:44:00;;;;;;;3.92;3.22;;;22.40;78.30;;;;;;4982281;28;20081;-94
2021/08/07 14:46:25;;;;;;;;;;;22.40;78.30;;;;;;4984569;28;20061;-94
2021/08/07 14:48:51;;;;;;;4.28;3.42;;;22.40;78.60;;;;;;4973270;28;19906;-95
2021/08/07 14:51:22;;;;;;;3.78;3.20;;;22.40;79.10;;;;;;4991693;28;20116;-94
2021/08/07 14:53:52;;;;;;;3.95;3.03;;;22.40;79.10;;;;;;4962254;28;20042;-94
2021/08/07 14:56:18;;;;;;;4.22;3.33;;;22.50;79.10;;;;;;4982620;28;20425;-93
2021/08/07 14:58:54;;;;;;;4.53;3.67;;;22.50;79.30;;;;;;4980657;28;20046;-93
2021/08/07 15:01:21;;;;;;;6.18;3.90;;;22.50;79.30;;;;;;4981968;28;20038;-94
2021/08/07 15:03:58;;;;;;;;;;;;;;;;;;;;;
2021/08/07 15:06:37;;;;;;;3.45;2.90;;;22.70;78.90;;;;;;5004013;28;20530;-94
2021/08/07 15:09:30;;;;;;;3.63;2.78;;;22.80;78.70;;;;;;4980025;28;20061;-95
2021/08/07 15:12:05;;;;;;;3.23;2.93;;;23.00;78.40;;;;;;4971801;28;20073;-95
2021/08/07 15:14:50;;;;;;;;;;;;;;;;;;;;;
2021/08/07 15:18:00;;;;;;;;;;;;;;;;;;;;;
2021/08/07 15:20:26;;;;;;;4.05;2.75;;;23.30;77.00;;;;;;4972539;28;20035;-95
2021/08/07 15:23:19;;;;;;;2.90;2.65;;;23.30;76.70;;;;;;4973429;28;20101;-93
2021/08/07 15:26:17;;;;;;;3.15;2.58;;;23.30;76.20;;;;;;4975191;28;20077;-96
2021/08/07 15:29:10;;;;;;;3.03;2.55;;;23.30;75.80;;;;;;4966770;28;20458;-93
2021/08/07 15:31:42;;;;;;;2.88;2.58;;;23.30;76.00;;;;;;4944187;29;20039;-93
2021/08/07 15:34:26;;;;;;;2.55;2.40;;;23.30;76.40;;;;;;4959384;28;20544;-95
2021/08/07 15:37:38;;;;;;;;;;;;;;;;;;;;;
2021/08/07 15:40:41;;;;;;;;;;;;;;;;;;;;;
2021/08/07 15:43:39;;;;;;;;;;;;;;;;;;;;;
2021/08/07 15:46:08;;;;;;;3.22;2.63;;;23.60;76.60;;;;;;4991666;28;20066;-92
2021/08/07 15:48:48;;;;;;;;;;;;;;;;;;;;;
2021/08/07 15:51:27;;;;;;;2.88;2.33;;;23.90;74.70;;;;;;4971013;28;20031;-94
2021/08/07 15:54:09;;;;;;;2.30;2.10;;;23.90;74.20;;;;;;4972417;28;20046;-95
2021/08/07 15:56:38;;;;;;;2.20;1.92;;;24.00;73.90;;;;;;4973684;28;20075;-94
2021/08/07 15:59:39;;;;;;;2.75;2.40;;;24.10;73.60;;;;;;4973912;28;20055;-94
2021/08/07 16:05:03;;;;;;;5.18;2.45;;;24.00;72.90;;;;;;4953235;28;20037;-95
2021/08/07 16:07:32;;;;;;;3.00;2.25;;;23.90;73.20;;;;;;4972261;28;20046;-94
2021/08/07 16:17:24;;;;;;;2.53;2.33;;;23.40;74.00;;;;;;4956435;29;20442;-95
2021/08/07 16:20:23;;;;;;;;;;;;;;;;;;;;;
2021/08/07 16:23:26;;;;;;;2.35;2.15;;;23.20;74.60;;;;;;4957487;29;20055;-95
2021/08/07 16:26:35;;;;;;;2.47;2.00;;;23.10;75.10;;;;;;4932235;29;20035;-94
2021/08/07 16:29:02;;;;;;;2.40;2.20;;;23.00;75.30;;;;;;4935419;29;20136;-95
2021/08/07 16:31:37;;;;;;;2.50;2.25;;;23.00;75.70;;;;;;4936873;29;20040;-96
2021/08/07 16:34:06;;;;;;;2.17;1.98;;;22.90;75.80;;;;;;4922245;29;20126;-94
2021/08/07 16:36:34;;;;;;;2.20;2.00;;;22.90;76.00;;;;;;4920206;29;20042;-94
2021/08/07 16:39:05;;;;;;;2.35;2.15;;;22.80;76.30;;;;;;4921007;29;20042;-95
2021/08/07 16:42:28;;;;;;;2.35;2.10;;;22.70;76.50;;;;;;4902126;29;20051;-95
2021/08/07 16:47:41;;;;;;;3.03;2.45;;;22.60;77.10;;;;;;4936564;29;20550;-93
2021/08/07 16:50:29;;;;;;;4.78;2.97;;;22.60;77.50;;;;;;4919952;29;20040;-94
2021/08/07 16:53:40;;;;;;;;;;;;;;;;;;;;;
2021/08/07 16:56:18;;;;;;;2.50;2.30;;;22.40;78.10;;;;;;4908318;29;20889;-93
2021/08/07 17:02:02;;;;;;;3.15;2.30;;;22.30;78.10;;;;;;4935937;28;20035;-94
2021/08/07 17:04:36;;;;;;;2.58;2.38;;;22.20;78.10;;;;;;4974729;28;20051;-94
2021/08/07 17:07:05;;;;;;;2.20;2.00;;;22.20;78.30;;;;;;4965394;28;20039;-94
2021/08/07 17:10:00;;;;;;;2.40;2.20;;;22.20;78.30;;;;;;4974222;28;20039;-93
2021/08/07 17:12:37;;;;;;;3.72;2.45;;;22.10;78.30;;;;;;4974364;28;20037;-94
2021/08/07 17:15:11;;;;;;;2.55;2.33;;;22.10;78.90;;;;;;4975122;28;20043;-94
2021/08/07 17:17:39;;;;;;;2.92;2.40;;;22.10;78.30;;;;;;4974505;28;20066;-95
2021/08/07 17:20:10;;;;;;;2.67;2.40;;;22.10;78.30;;;;;;4966492;28;20046;-94
2021/08/07 17:23:04;;;;;;;2.88;2.50;;;22.00;78.40;;;;;;4961058;28;20474;-94
2021/08/07 17:25:46;;;;;;;;;;;;;;;;;;;;;
2021/08/07 17:28:22;;;;;;;2.53;2.25;;;22.00;78.50;;;;;;4975993;28;20039;-96
2021/08/07 17:30:53;;;;;;;2.55;2.10;;;21.90;78.60;;;;;;4977206;28;20053;-95
2021/08/07 17:33:31;;;;;;;;;;;;;;;;;;;;;
2021/08/07 17:35:59;;;;;;;2.83;2.60;;;21.80;78.70;;;;;;4977545;28;20037;-93
2021/08/07 17:38:45;;;;;;;;;;;;;;;;;;;;;
2021/08/07 17:41:15;;;;;;;2.88;2.58;;;21.80;79.10;;;;;;4970701;28;20038;-93
2021/08/07 17:46:34;;;;;;;6.45;2.88;;;21.60;79.50;;;;;;4978730;28;20039;-94
2021/08/07 17:49:10;;;;;;;;;;;21.60;79.70;;;;;;4977434;28;20030;-94
2021/08/07 17:51:58;;;;;;;2.45;2.25;;;21.50;80.30;;;;;;4975584;28;19910;-95
2021/08/07 17:54:43;;;;;;;6.38;2.58;;;21.50;80.00;;;;;;4974610;28;20039;-94
2021/08/07 17:57:12;;;;;;;2.20;2.10;;;21.50;80.10;;;;;;4974597;28;20039;-95
2021/08/07 17:59:43;;;;;;;2.38;2.17;;;21.40;80.00;;;;;;4971028;28;20046;-95
2021/08/07 18:02:17;;;;;;;2.38;2.03;;;21.30;79.90;;;;;;4963212;28;20034;-95
2021/08/07 18:05:03;;;;;;;2.47;2.25;;;21.30;79.90;;;;;;4975393;28;20117;-95
2021/08/07 18:07:39;;;;;;;;;;;;;;;;;;;;;
2021/08/07 18:10:26;;;;;;;4.68;2.05;;;21.30;79.70;;;;;;4989046;28;20052;-94
2021/08/07 18:13:07;;;;;;;;;;;;;;;;;;;;;
2021/08/07 18:15:39;;;;;;;2.05;1.90;;;21.20;79.70;;;;;;4995786;28;20033;-95
2021/08/07 18:18:17;;;;;;;;;;;;;;;;;;;;;
2021/08/07 18:21:16;;;;;;;;;;;;;;;;;;;;;
2021/08/07 18:26:31;;;;;;;2.00;1.58;;;21.00;79.80;;;;;;4987122;28;20381;-95
2021/08/07 18:29:17;;;;;;;2.38;1.85;;;21.00;79.90;;;;;;4977350;28;20035;-94
2021/08/07 18:32:04;;;;;;;1.95;1.77;;;20.90;80.00;;;;;;4977703;28;20042;-95
2021/08/07 18:34:32;;;;;;;2.20;2.00;;;20.90;80.10;;;;;;4961270;28;20122;-94
2021/08/07 18:36:58;;;;;;;2.70;1.75;;;20.90;80.20;;;;;;4977058;28;20453;-94
2021/08/07 18:39:25;;;;;;;2.28;2.05;;;20.80;80.20;;;;;;4980501;28;20034;-94
2021/08/07 18:42:11;;;;;;;2.13;1.92;;;20.80;80.30;;;;;;4980833;28;20389;-93
2021/08/07 18:48:07;;;;;;;2.10;1.47;;;20.70;80.70;;;;;;4998010;28;20096;-94
2021/08/07 18:50:43;;;;;;;1.63;1.52;;;20.70;80.50;;;;;;4980599;28;20070;-95
2021/08/07 18:53:12;;;;;;;1.85;1.70;;;20.70;80.80;;;;;;4972859;28;20080;-96
2021/08/07 18:55:43;;;;;;;2.35;2.15;;;20.60;81.40;;;;;;4980889;28;20096;-95
2021/08/07 18:58:24;;;;;;;;;;;;;;;;;;;;;
2021/08/07 19:01:10;;;;;;;2.60;2.40;;;20.50;81.10;;;;;;4998331;28;20035;-94
2021/08/07 19:03:48;;;;;;;1.88;1.73;;;20.40;81.30;;;;;;4980520;28;20505;-94
2021/08/07 19:06:34;;;;;;;3.60;2.20;;;20.40;81.40;;;;;;4976725;28;20398;-93
2021/08/07 19:09:00;;;;;;;2.10;1.90;;;20.40;81.70;;;;;;4979315;28;20047;-95
2021/08/07 19:11:28;;;;;;;2.35;2.15;;;20.30;81.70;;;;;;4972883;28;20042;-95
2021/08/07 19:13:58;;;;;;;2.05;1.90;;;20.30;81.90;;;;;;4981728;28;20135;-95
2021/08/07 19:16:35;;;;;;;;;;;;;;;;;;;;;
2021/08/07 19:19:41;;;;;;;;;;;;;;;;;;;;;
2021/08/07 19:22:15;;;;;;;2.33;2.13;;;20.10;82.30;;;;;;4997797;28;20507;-94
2021/08/07 19:24:40;;;;;;;;;;;20.10;82.50;;;;;;4980796;28;20053;-95
2021/08/07 19:27:38;;;;;;;1.80;1.70;;;20.00;83.00;;;;;;4997786;28;20008;-94
2021/08/07 19:30:19;;;;;;;2.72;1.80;;;20.00;82.80;;;;;;4977603;28;20035;-93
2021/08/07 19:32:47;;;;;;;2.15;1.90;;;19.90;83.10;;;;;;4978242;28;20077;-91
2021/08/07 19:35:16;;;;;;;2.17;2.00;;;19.90;83.10;;;;;;4984913;28;20080;-92
2021/08/07 19:38:06;;;;;;;3.33;2.13;;;19.90;83.30;;;;;;4983027;28;20061;-91
2021/08/07 19:40:37;;;;;;;2.05;1.85;;;19.90;83.80;;;;;;4982495;28;20045;-95
2021/08/07 19:43:13;;;;;;;2.40;2.05;;;19.80;83.60;;;;;;4998992;28;20045;-94
2021/08/07 19:45:59;;;;;;;3.70;1.98;;;19.80;83.60;;;;;;4972576;28;20042;-94
2021/08/07 19:48:29;;;;;;;2.80;1.80;;;19.80;84.30;;;;;;4980192;28;20405;-95
2021/08/07 19:50:57;;;;;;;1.77;1.67;;;19.70;83.90;;;;;;4989186;28;20042;-94
2021/08/07 19:53:24;;;;;;;1.55;1.40;;;19.70;84.10;;;;;;4979684;28;20031;-94
2021/08/07 19:55:49;;;;;;;2.65;1.80;;;19.70;84.20;;;;;;4971901;28;20026;-95
2021/08/07 19:58:29;;;;;;;1.88;1.55;;;19.70;84.40;;;;;;4979662;28;20037;-94
2021/08/07 20:01:03;;;;;;;2.03;1.60;;;19.60;84.40;;;;;;4965025;28;20038;-96
2021/08/07 20:03:47;;;;;;;2.45;1.83;;;19.60;84.60;;;;;;4979368;28;20046;-94